createdAt,value
2023-04-15T00:03:53.899Z,99702.16
2023-04-15T00:07:57.219Z,99705.75
2023-04-15T00:12:02.047Z,99694.47
2023-04-15T00:16:05.619Z,99700.63
2023-04-15T00:20:09.290Z,99699.06
2023-04-15T00:24:12.651Z,99700.50
2023-04-15T00:28:17.486Z,99702.56
2023-04-15T00:32:20.586Z,99700.25
2023-04-15T00:36:24.496Z,99689.25
2023-04-15T00:40:28.000Z,99701.75
2023-04-15T00:44:32.587Z,99699.19
2023-04-15T00:48:35.744Z,99699.75
2023-04-15T00:52:39.111Z,99710.38
2023-04-15T00:56:43.163Z,99713.81
2023-04-15T01:00:47.919Z,99710.59
2023-04-15T01:04:51.497Z,99713.13
2023-04-15T01:08:55.280Z,99709.28
2023-04-15T01:12:58.504Z,99715.25
2023-04-15T01:17:03.666Z,99722.06
2023-04-15T01:21:07.996Z,99712.91
2023-04-15T01:25:18.822Z,99722.84
2023-04-15T01:29:23.303Z,99724.41
2023-04-15T01:33:27.825Z,99730.03
2023-04-15T01:37:50.539Z,99729.00
2023-04-15T01:41:53.929Z,99732.78
2023-04-15T01:45:59.592Z,99727.50
2023-04-15T01:50:05.910Z,99734.09
2023-04-15T01:54:10.214Z,99732.25
2023-04-15T01:58:15.106Z,99729.63
2023-04-15T02:02:21.289Z,99729.94
2023-04-15T02:06:25.735Z,99735.34
2023-04-15T02:10:30.691Z,99736.59
2023-04-15T02:14:36.073Z,99742.66
2023-04-15T02:18:41.775Z,99738.50
2023-04-15T02:22:48.410Z,99738.50
2023-04-15T02:26:53.210Z,99749.97
2023-04-15T02:30:59.340Z,99749.41
2023-04-15T02:35:05.915Z,99745.03
2023-04-15T02:39:10.284Z,99744.84
2023-04-15T02:43:17.221Z,99751.13
2023-04-15T02:47:21.894Z,99746.53
2023-04-15T02:51:31.609Z,99762.75
2023-04-15T02:55:37.032Z,99756.81
2023-04-15T02:59:41.445Z,99769.31
2023-04-15T03:03:45.972Z,99774.06
2023-04-15T03:07:54.329Z,99768.75
2023-04-15T03:11:58.845Z,99771.78
2023-04-15T03:16:03.213Z,99776.53
2023-04-15T03:20:10.532Z,99785.56
2023-04-15T03:24:16.698Z,99789.03
2023-04-15T03:28:22.290Z,99782.97
2023-04-15T03:32:27.322Z,99774.50
2023-04-15T03:36:33.289Z,99784.94
2023-04-15T03:40:39.749Z,99784.53
2023-04-15T03:44:44.383Z,99784.72
2023-04-15T03:48:48.675Z,99791.34
2023-04-15T03:52:53.021Z,99793.78
2023-04-15T03:56:58.864Z,99788.78
2023-04-15T04:01:03.329Z,99789.53
2023-04-15T04:05:08.277Z,99801.56
2023-04-15T04:09:12.556Z,99803.72
2023-04-15T04:13:18.228Z,99806.72
2023-04-15T04:17:22.792Z,99807.34
2023-04-15T04:21:27.754Z,99812.63
2023-04-15T04:25:32.321Z,99809.16
2023-04-15T04:29:39.686Z,99817.66
2023-04-15T04:33:43.997Z,99810.34
2023-04-15T04:37:48.416Z,99816.09
2023-04-15T04:41:53.302Z,99819.06
2023-04-15T04:45:58.970Z,99822.25
2023-04-15T04:50:03.653Z,99824.72
2023-04-15T04:54:07.986Z,99824.13
2023-04-15T04:58:12.617Z,99820.00
2023-04-15T05:02:18.367Z,99822.50
2023-04-15T05:06:22.799Z,99832.03
2023-04-15T05:10:27.197Z,99831.00
2023-04-15T05:14:32.336Z,99839.63
2023-04-15T05:18:38.041Z,99836.06
2023-04-15T05:22:42.476Z,99832.53
2023-04-15T05:26:47.113Z,99849.75
2023-04-15T05:30:51.601Z,99841.09
2023-04-15T05:34:57.434Z,99846.91
2023-04-15T05:39:02.281Z,99846.84
2023-04-15T05:43:06.834Z,99839.44
2023-04-15T05:47:11.603Z,99842.88
2023-04-15T05:51:17.233Z,99856.13
2023-04-15T05:55:22.216Z,99861.00
2023-04-15T05:59:27.269Z,99856.88
2023-04-15T06:03:31.842Z,99865.69
2023-04-15T06:07:38.139Z,99865.72
2023-04-15T06:11:42.455Z,99866.56
2023-04-15T06:15:46.832Z,99882.31
2023-04-15T06:19:55.556Z,99880.44
2023-04-15T06:24:04.033Z,99886.03
2023-04-15T06:28:08.867Z,99894.19
2023-04-15T06:32:13.194Z,99899.66
2023-04-15T06:36:17.707Z,99907.38
2023-04-15T06:40:23.365Z,99910.94
2023-04-15T06:44:27.640Z,99921.81
2023-04-15T06:48:32.034Z,99929.41
2023-04-15T06:52:36.520Z,99933.16
2023-04-15T06:56:42.231Z,99952.47
2023-04-15T07:00:46.636Z,99971.94
2023-04-15T07:04:51.251Z,99974.28
2023-04-15T07:08:55.808Z,99980.56
2023-04-15T07:13:02.129Z,99981.38
2023-04-15T07:17:06.841Z,99998.16
2023-04-15T07:21:11.742Z,100002.34
2023-04-15T07:25:16.079Z,100004.41
2023-04-15T07:29:21.958Z,100010.28
2023-04-15T07:33:26.286Z,100013.50
2023-04-15T07:37:30.753Z,100011.19
2023-04-15T07:41:35.220Z,100023.53
2023-04-15T07:45:40.870Z,100028.50
2023-04-15T07:49:46.441Z,100036.72
2023-04-15T07:53:51.970Z,100042.25
2023-04-15T07:57:56.702Z,100038.75
2023-04-15T08:02:02.676Z,100040.06
2023-04-15T08:06:07.252Z,100041.06
2023-04-15T08:10:12.171Z,100043.56
2023-04-15T08:14:16.839Z,100049.19
2023-04-15T08:18:22.548Z,100054.19
2023-04-15T08:22:27.665Z,100060.47
2023-04-15T08:26:32.258Z,100054.06
2023-04-15T08:30:36.872Z,100060.13
2023-04-15T08:34:42.624Z,100062.84
2023-04-15T08:38:47.303Z,100060.13
2023-04-15T08:42:57.476Z,100075.19
2023-04-15T08:47:03.306Z,100078.06
2023-04-15T08:51:10.103Z,100074.56
2023-04-15T08:55:15.460Z,100077.81
2023-04-15T08:59:22.102Z,100086.81
2023-04-15T09:03:26.991Z,100089.88
2023-04-15T09:07:35.133Z,100086.84
2023-04-15T09:11:39.775Z,100094.09
2023-04-15T09:15:44.170Z,100098.28
2023-04-15T09:19:48.855Z,100099.41
2023-04-15T09:23:59.420Z,100110.56
2023-04-15T09:28:04.405Z,100116.56
2023-04-15T09:32:12.819Z,100123.63
2023-04-15T09:36:17.722Z,100127.63
2023-04-15T09:40:37.303Z,100127.50
2023-04-15T09:44:42.007Z,100136.53
2023-04-15T09:48:46.713Z,100143.44
2023-04-15T09:52:51.148Z,100144.09
2023-04-15T09:56:56.908Z,100156.06
2023-04-15T10:01:02.730Z,100149.53
2023-04-15T10:05:09.017Z,100155.41
2023-04-15T10:09:13.835Z,100164.59
2023-04-15T10:13:22.488Z,100164.41
2023-04-15T10:17:31.599Z,100159.16
2023-04-15T10:21:37.920Z,100167.22
2023-04-15T10:25:43.023Z,100179.00
2023-04-15T10:29:49.878Z,100173.06
2023-04-15T10:33:55.047Z,100173.34
2023-04-15T10:37:59.947Z,100185.50
2023-04-15T10:42:08.859Z,100185.94
2023-04-15T10:46:15.145Z,100184.31
2023-04-15T10:50:20.358Z,100190.66
2023-04-15T10:54:33.786Z,100192.94
2023-04-15T10:58:43.744Z,100195.41
2023-04-15T11:02:54.104Z,100203.69
2023-04-15T11:07:07.513Z,100196.84
2023-04-15T11:11:11.795Z,100209.78
2023-04-15T11:15:31.947Z,100221.00
2023-04-15T11:19:40.959Z,100223.97
2023-04-15T11:23:47.057Z,100221.03
2023-04-15T11:27:52.090Z,100230.28
2023-04-15T11:32:06.158Z,100224.78
2023-04-15T11:36:11.877Z,100223.88
2023-04-15T11:40:20.047Z,100231.50
2023-04-15T11:44:24.402Z,100243.50
2023-04-15T11:48:29.942Z,100243.28
2023-04-15T11:52:35.684Z,100246.31
2023-04-15T11:56:39.158Z,100244.84
2023-04-15T12:00:42.824Z,100250.19
2023-04-15T12:04:46.379Z,100260.88
2023-04-15T12:09:02.292Z,100268.59
2023-04-15T12:13:09.211Z,100261.97
2023-04-15T12:17:13.301Z,100268.97
2023-04-15T12:21:16.634Z,100272.75
2023-04-15T12:25:34.052Z,100272.13
2023-04-15T12:29:38.842Z,100283.13
2023-04-15T12:33:42.076Z,100293.09
2023-04-15T12:37:45.109Z,100290.78
2023-04-15T12:41:50.361Z,100298.28
2023-04-15T12:45:53.574Z,100304.81
2023-04-15T12:49:56.846Z,100313.06
2023-04-15T12:54:00.066Z,100316.75
2023-04-15T12:58:04.601Z,100320.50
2023-04-15T13:02:08.176Z,100329.88
2023-04-15T13:06:11.733Z,100338.66
2023-04-15T13:10:14.820Z,100328.31
2023-04-15T13:14:19.451Z,100349.41
2023-04-15T13:18:23.724Z,100348.03
2023-04-15T13:22:27.187Z,100356.75
2023-04-15T13:26:31.341Z,100363.00
2023-04-15T13:30:36.012Z,100371.44
2023-04-15T13:34:39.377Z,100369.50
2023-04-15T13:38:42.429Z,100364.72
2023-04-15T13:42:45.876Z,100375.66
2023-04-15T13:46:50.389Z,100373.38
2023-04-15T13:50:53.494Z,100380.75
2023-04-15T13:55:19.139Z,100394.25
2023-04-15T13:59:19.596Z,100391.47
2023-04-15T14:03:24.203Z,100395.97
2023-04-15T14:07:27.485Z,100407.13
2023-04-15T14:11:31.064Z,100418.91
2023-04-15T14:15:34.157Z,100401.78
2023-04-15T14:19:38.817Z,100422.25
2023-04-15T14:23:42.522Z,100418.59
2023-04-15T14:27:46.401Z,100422.34
2023-04-15T14:32:04.288Z,100422.50
2023-04-15T14:36:14.493Z,100430.50
2023-04-15T14:40:17.683Z,100426.78
2023-04-15T14:44:20.882Z,100449.25
2023-04-15T14:48:24.060Z,100453.78
2023-04-15T14:52:28.953Z,100455.91
2023-04-15T14:56:32.094Z,100465.75
2023-04-15T15:00:35.319Z,100463.78
2023-04-15T15:04:38.685Z,100464.94
2023-04-15T15:08:43.281Z,100463.00
2023-04-15T15:12:46.402Z,100464.09
2023-04-15T15:16:49.544Z,100468.56
2023-04-15T15:20:53.082Z,100470.19
2023-04-15T15:24:59.298Z,100474.69
2023-04-15T15:29:02.909Z,100475.50
2023-04-15T15:33:06.267Z,100483.66
2023-04-15T15:37:09.391Z,100485.94
2023-04-15T15:41:15.590Z,100486.38
2023-04-15T15:45:19.031Z,100484.66
2023-04-15T15:49:22.168Z,100487.97
2023-04-15T15:53:25.976Z,100481.72
2023-04-15T15:57:30.606Z,100490.63
2023-04-15T16:01:33.762Z,100509.72
2023-04-15T16:05:37.090Z,100522.94
2023-04-15T16:09:41.143Z,100522.09
2023-04-15T16:13:46.413Z,100523.44
2023-04-15T16:17:49.584Z,100529.47
2023-04-15T16:21:52.712Z,100533.66
2023-04-15T16:25:55.939Z,100543.75
2023-04-15T16:30:00.453Z,100549.25
2023-04-15T16:34:03.862Z,100563.69
2023-04-15T16:38:07.465Z,100555.13
2023-04-15T16:42:10.756Z,100567.19
2023-04-15T16:46:15.600Z,100579.53
2023-04-15T16:50:18.913Z,100585.16
2023-04-15T16:54:22.032Z,100589.78
2023-04-15T16:58:25.211Z,100595.16
2023-04-15T17:02:31.416Z,100597.31
2023-04-15T17:06:34.875Z,100611.03
2023-04-15T17:10:38.072Z,100621.56
2023-04-15T17:14:41.276Z,100624.09
2023-04-15T17:18:47.425Z,100615.91
2023-04-15T17:22:55.888Z,100631.25
2023-04-15T17:27:03.622Z,100649.19
2023-04-15T17:31:10.639Z,100651.06
2023-04-15T17:35:35.978Z,100657.59
2023-04-15T17:39:58.925Z,100656.16
2023-04-15T17:44:24.049Z,100662.03
2023-04-15T17:48:49.483Z,100665.81
2023-04-15T17:53:14.087Z,100662.44
2023-04-15T17:57:37.152Z,100678.88
2023-04-15T18:02:00.531Z,100672.72
2023-04-15T18:06:23.977Z,100681.34
2023-04-15T18:10:48.401Z,100688.94
2023-04-15T18:15:14.584Z,100706.16
2023-04-15T18:19:37.656Z,100699.63
2023-04-15T18:23:40.788Z,100712.47
2023-04-15T18:27:45.776Z,100721.28
2023-04-15T18:31:48.804Z,100725.44
2023-04-15T18:35:51.905Z,100734.69
2023-04-15T18:39:55.262Z,100747.31
2023-04-15T18:43:59.765Z,100762.63
2023-04-15T18:48:03.437Z,100765.50
2023-04-15T18:52:07.067Z,100778.63
2023-04-15T18:56:10.247Z,100789.06
2023-04-15T19:00:16.215Z,100806.13
2023-04-15T19:04:20.580Z,100827.84
2023-04-15T19:08:23.725Z,100836.78
2023-04-15T19:12:26.880Z,100844.00
2023-04-15T19:16:31.441Z,100857.00
2023-04-15T19:20:37.788Z,100863.00
2023-04-15T19:24:43.212Z,100874.81
2023-04-15T19:28:46.314Z,100882.28
2023-04-15T19:32:50.910Z,100898.97
2023-04-15T19:36:54.074Z,100900.66
2023-04-15T19:40:57.356Z,100916.09
2023-04-15T19:45:00.484Z,100929.34
2023-04-15T19:49:05.349Z,100941.19
2023-04-15T19:53:09.672Z,100942.25
2023-04-15T19:57:12.745Z,100947.31
2023-04-15T20:01:15.873Z,100956.00
2023-04-15T20:05:20.300Z,100957.56
2023-04-15T20:09:23.438Z,100954.31
2023-04-15T20:13:26.648Z,100965.22
2023-04-15T20:17:33.744Z,100963.34
2023-04-15T20:21:38.446Z,100964.75
2023-04-15T20:25:43.410Z,100964.03
2023-04-15T20:29:46.567Z,100973.25
2023-04-15T20:33:49.688Z,100974.44
2023-04-15T20:37:54.163Z,100978.47
2023-04-15T20:41:57.788Z,100965.50
2023-04-15T20:46:06.988Z,100976.69
2023-04-15T20:50:21.068Z,100975.94
2023-04-15T20:54:25.723Z,100984.13
2023-04-15T20:58:28.751Z,100980.44
2023-04-15T21:02:32.125Z,100982.97
2023-04-15T21:06:36.359Z,100993.41
2023-04-15T21:10:40.842Z,100990.50
2023-04-15T21:14:43.867Z,100992.09
2023-04-15T21:18:47.314Z,100996.97
2023-04-15T21:22:50.348Z,100996.69
2023-04-15T21:26:54.956Z,101008.97
2023-04-15T21:30:59.285Z,101015.47
2023-04-15T21:35:02.441Z,101016.19
2023-04-15T21:39:07.258Z,101024.66
2023-04-15T21:43:11.870Z,101033.47
2023-04-15T21:47:15.048Z,101028.56
2023-04-15T21:51:18.276Z,101035.69
2023-04-15T21:55:21.423Z,101034.50
2023-04-15T21:59:26.349Z,101037.53
2023-04-15T22:03:30.516Z,101041.75
2023-04-15T22:07:33.728Z,101045.63
2023-04-15T22:11:36.884Z,101048.28
2023-04-15T22:15:43.834Z,101043.31
2023-04-15T22:19:47.403Z,101044.34
2023-04-15T22:23:50.904Z,101037.84
2023-04-15T22:27:54.025Z,101049.78
2023-04-15T22:31:58.430Z,101046.09
2023-04-15T22:36:01.533Z,101049.50
2023-04-15T22:40:05.095Z,101052.50
2023-04-15T22:44:08.216Z,101048.66
2023-04-15T22:48:13.012Z,101050.22
2023-04-15T22:52:29.428Z,101049.50
2023-04-15T22:56:33.914Z,101057.38
2023-04-15T23:00:36.987Z,101053.25
2023-04-15T23:04:41.619Z,101053.97
2023-04-15T23:08:45.627Z,101058.69
2023-04-15T23:12:48.698Z,101071.66
2023-04-15T23:16:51.700Z,101066.56
2023-04-15T23:20:57.277Z,101074.38
2023-04-15T23:25:00.282Z,101082.38
2023-04-15T23:29:03.345Z,101077.97
2023-04-15T23:33:06.415Z,101074.38
2023-04-15T23:37:10.813Z,101079.47
2023-04-15T23:41:13.848Z,101077.69
2023-04-15T23:45:16.950Z,101083.53
2023-04-15T23:49:20.592Z,101083.16
2023-04-15T23:53:25.200Z,101094.06
2023-04-15T23:57:28.283Z,101081.97
